Time;durP1;ratioP1;P1;durP2;ratioP2;P2;SDS_P1;SDS_P2;PMS_P1;PMS_P2;Temp;Humidity;BMP_temperature;BMP_pressure;BME280_temperature;BME280_humidity;BME280_pressure;Samples;Min_cycle;Max_cycle;Signal;HPM_P1;HPM_P2
2022/12/23 00:00:59;;;;;;;3.58;1.38;;;20.60;46.70;;;;;;5053345;28;20025;-50
2022/12/23 00:03:26;;;;;;;4.45;1.60;;;20.60;46.70;;;;;;5050807;28;20321;-52
2022/12/23 00:05:52;;;;;;;3.50;1.52;;;20.60;46.70;;;;;;5053017;28;20116;-51
2022/12/23 00:08:19;;;;;;;3.13;1.42;;;20.60;46.80;;;;;;5051638;28;21250;-51
2022/12/23 00:10:46;;;;;;;3.47;1.70;;;20.50;46.70;;;;;;5052231;28;20037;-54
2022/12/23 00:16:13;;;;;;;3.28;1.40;;;20.60;46.80;;;;;;5049143;28;20045;-54
2022/12/23 00:18:39;;;;;;;2.58;1.42;;;20.50;46.80;;;;;;5049988;28;20020;-55
2022/12/23 00:21:14;;;;;;;2.83;1.50;;;20.50;46.80;;;;;;5052556;28;20025;-53
2022/12/23 00:23:42;;;;;;;4.00;1.67;;;20.50;46.80;;;;;;5050907;28;20464;-54
2022/12/23 00:26:23;;;;;;;3.65;1.50;;;20.50;46.80;;;;;;5052492;28;20111;-49
2022/12/23 00:28:49;;;;;;;4.00;1.58;;;20.50;46.80;;;;;;5051337;28;20455;-51
2022/12/23 00:31:17;;;;;;;3.17;1.60;;;20.50;46.90;;;;;;5052779;28;20033;-51
2022/12/23 00:33:46;;;;;;;2.55;1.23;;;20.50;46.90;;;;;;5051938;28;20095;-51
2022/12/23 00:36:23;;;;;;;3.50;2.00;;;20.50;47.00;;;;;;5054895;28;20040;-50
2022/12/23 00:44:20;;;;;;;2.95;1.50;;;20.50;47.00;;;;;;5051910;28;20379;-53
2022/12/23 00:46:45;;;;;;;3.92;1.80;;;20.40;46.90;;;;;;5052371;28;20067;-50
2022/12/23 00:51:58;;;;;;;3.08;1.50;;;20.50;47.00;;;;;;5051423;28;20344;-52
2022/12/23 00:54:24;;;;;;;2.15;1.55;;;20.40;47.00;;;;;;5051065;28;21222;-51
2022/12/23 00:56:50;;;;;;;3.45;1.73;;;20.40;47.00;;;;;;5051157;28;20033;-55
2022/12/23 00:59:16;;;;;;;2.88;1.65;;;20.40;47.00;;;;;;5051891;28;20025;-54
2022/12/23 01:07:11;;;;;;;3.28;1.70;;;20.40;47.00;;;;;;5050011;28;20025;-50
2022/12/23 01:09:36;;;;;;;3.08;1.98;;;20.40;47.10;;;;;;5053256;28;20048;-48
2022/12/23 01:12:03;;;;;;;3.47;1.60;;;20.40;47.10;;;;;;5034190;28;20037;-52
2022/12/23 01:14:29;;;;;;;4.28;1.67;;;20.40;47.10;;;;;;5050106;28;20052;-51
2022/12/23 01:16:55;;;;;;;3.40;1.63;;;20.40;47.10;;;;;;5051710;28;20060;-54
2022/12/23 01:19:21;;;;;;;3.63;1.55;;;20.40;47.20;;;;;;5052215;28;20025;-49
2022/12/23 01:21:46;;;;;;;3.38;1.35;;;20.40;47.30;;;;;;5050315;28;20051;-49
2022/12/23 01:24:12;;;;;;;3.30;1.80;;;20.40;47.30;;;;;;5051902;28;20025;-51
2022/12/23 01:26:38;;;;;;;3.63;1.67;;;20.40;47.30;;;;;;5050500;28;20094;-52
2022/12/23 01:29:04;;;;;;;4.80;1.77;;;20.40;47.30;;;;;;5051429;28;20099;-52
2022/12/23 01:31:30;;;;;;;3.35;1.73;;;20.40;47.30;;;;;;5049754;28;20033;-52
2022/12/23 01:33:56;;;;;;;2.47;1.27;;;20.40;47.30;;;;;;5051457;28;20037;-55
2022/12/23 01:36:22;;;;;;;2.65;1.30;;;20.40;47.30;;;;;;5051302;28;20032;-51
2022/12/23 01:38:48;;;;;;;3.00;1.60;;;20.30;47.20;;;;;;5050691;28;20060;-51
2022/12/23 01:44:42;;;;;;;3.13;1.45;;;20.40;47.30;;;;;;5051059;28;20414;-50
2022/12/23 01:47:35;;;;;;;2.88;1.60;;;20.30;47.20;;;;;;5048006;28;20021;-53
2022/12/23 01:50:09;;;;;;;3.38;1.58;;;20.30;47.20;;;;;;5050708;28;20040;-52
2022/12/23 01:52:44;;;;;;;2.72;1.40;;;20.30;47.30;;;;;;5048029;28;20025;-52
2022/12/23 01:55:13;;;;;;;3.63;1.40;;;20.30;47.30;;;;;;5048514;28;20471;-50
2022/12/23 01:57:41;;;;;;;2.80;1.70;;;20.30;47.30;;;;;;5050397;28;20028;-54
2022/12/23 02:05:40;;;;;;;3.17;1.50;;;20.30;47.30;;;;;;5052525;28;20337;-52
2022/12/23 02:11:11;;;;;;;2.92;1.50;;;20.30;47.30;;;;;;5048231;28;20045;-55
2022/12/23 02:16:49;;;;;;;2.45;1.42;;;20.30;47.30;;;;;;5049801;28;20040;-51
2022/12/23 02:19:37;;;;;;;2.88;1.40;;;20.20;47.30;;;;;;5049635;28;20024;-52
2022/12/23 02:22:21;;;;;;;3.55;1.50;;;20.20;47.30;;;;;;5048253;28;20051;-54
2022/12/23 02:25:03;;;;;;;5.57;1.63;;;20.20;47.30;;;;;;5049251;28;20368;-52
2022/12/23 02:27:45;;;;;;;2.75;1.30;;;20.20;47.30;;;;;;5048860;28;20022;-51
2022/12/23 02:30:28;;;;;;;3.03;1.48;;;20.20;47.30;;;;;;5048482;28;20037;-52
2022/12/23 02:32:56;;;;;;;1.85;1.25;;;20.20;47.30;;;;;;5049912;28;20036;-52
2022/12/23 02:35:30;;;;;;;2.55;1.42;;;20.20;47.30;;;;;;5048088;28;20032;-53
2022/12/23 02:38:14;;;;;;;3.95;1.55;;;20.20;47.30;;;;;;5048993;28;20032;-50
2022/12/23 02:41:05;;;;;;;2.25;1.48;;;20.20;47.40;;;;;;5049563;28;20029;-50
2022/12/23 02:43:50;;;;;;;2.95;1.30;;;20.20;47.40;;;;;;5050426;28;20021;-53
2022/12/23 02:46:32;;;;;;;2.83;1.55;;;20.20;47.40;;;;;;5048758;28;20059;-53
2022/12/23 02:49:20;;;;;;;1.60;1.17;;;20.20;47.40;;;;;;5049748;28;20082;-55
2022/12/23 02:51:49;;;;;;;3.28;1.50;;;20.20;47.40;;;;;;5050103;28;20120;-53
2022/12/23 02:54:23;;;;;;;2.08;1.30;;;20.10;47.40;;;;;;5052568;28;20020;-49
2022/12/23 02:56:51;;;;;;;3.28;1.63;;;20.20;47.40;;;;;;5048289;28;20352;-50
2022/12/23 02:59:25;;;;;;;2.33;1.20;;;20.20;47.50;;;;;;5049006;28;20048;-55
2022/12/23 03:01:52;;;;;;;1.92;1.63;;;20.20;47.50;;;;;;5048525;28;20079;-56
2022/12/23 03:04:19;;;;;;;2.33;1.42;;;20.10;47.40;;;;;;5052524;28;20105;-48
2022/12/23 03:06:57;;;;;;;2.28;1.23;;;20.20;47.50;;;;;;5054488;28;20072;-52
2022/12/23 03:10:12;;;;;;;2.80;1.48;;;20.10;47.40;;;;;;5053991;28;20068;-52
2022/12/23 03:13:08;;;;;;;2.50;1.50;;;20.20;47.50;;;;;;5053357;28;20053;-46
2022/12/23 03:16:01;;;;;;;3.05;1.70;;;20.10;47.40;;;;;;5052855;28;20045;-46
2022/12/23 03:18:32;;;;;;;2.20;1.40;;;20.10;47.40;;;;;;5051525;28;20479;-50
2022/12/23 03:21:04;;;;;;;3.28;1.50;;;20.10;47.40;;;;;;5053606;28;20082;-49
2022/12/23 03:23:37;;;;;;;2.22;1.50;;;20.10;47.40;;;;;;5052973;28;20524;-50
2022/12/23 03:26:17;;;;;;;2.17;1.37;;;20.10;47.50;;;;;;5054059;28;20524;-50
2022/12/23 03:29:32;;;;;;;2.63;1.27;;;20.10;47.50;;;;;;5052398;28;20112;-49
2022/12/23 03:32:00;;;;;;;3.03;1.40;;;20.10;47.40;;;;;;4938388;29;20039;-49
2022/12/23 03:34:32;;;;;;;1.65;1.17;;;20.10;47.40;;;;;;4947672;28;20137;-54
2022/12/23 03:37:01;;;;;;;2.42;1.33;;;20.10;47.40;;;;;;5006578;28;20179;-55
2022/12/23 03:39:37;;;;;;;2.15;1.30;;;20.00;47.30;;;;;;5051849;28;20033;-52
2022/12/23 03:42:37;;;;;;;2.58;1.30;;;20.10;47.40;;;;;;5052397;28;20030;-52
2022/12/23 03:45:15;;;;;;;1.80;0.90;;;20.00;47.30;;;;;;5030415;28;20045;-55
2022/12/23 03:47:52;;;;;;;1.67;1.00;;;20.00;47.30;;;;;;5051473;28;20108;-53
2022/12/23 03:50:19;;;;;;;1.75;1.02;;;20.10;47.30;;;;;;5051400;28;20072;-54
2022/12/23 03:52:54;;;;;;;1.65;1.08;;;20.00;47.30;;;;;;5035950;28;20115;-54
2022/12/23 03:55:25;;;;;;;;;;;20.00;47.30;;;;;;5053427;28;20056;-54
2022/12/23 03:58:23;;;;;;;2.15;1.10;;;20.00;47.30;;;;;;5052844;28;19920;-53
2022/12/23 04:01:11;;;;;;;1.23;0.98;;;20.10;47.40;;;;;;5053275;28;20395;-53
2022/12/23 04:03:44;;;;;;;1.40;0.80;;;20.00;47.30;;;;;;5050946;28;20041;-48
2022/12/23 04:06:15;;;;;;;2.03;0.90;;;20.00;47.30;;;;;;5051160;28;20031;-50
2022/12/23 04:08:42;;;;;;;1.90;1.05;;;20.00;47.30;;;;;;5055855;28;20036;-54
2022/12/23 04:11:08;;;;;;;1.85;0.90;;;20.00;47.40;;;;;;5052635;28;20044;-49
2022/12/23 04:13:34;;;;;;;2.08;1.05;;;20.00;47.30;;;;;;5052131;28;20032;-52
2022/12/23 04:16:01;;;;;;;1.02;0.90;;;20.00;47.30;;;;;;5050610;28;20372;-52
2022/12/23 04:18:27;;;;;;;1.98;1.13;;;20.00;47.30;;;;;;5051331;28;20025;-50
2022/12/23 04:20:54;;;;;;;1.17;0.85;;;20.00;47.30;;;;;;5052900;28;20025;-53
2022/12/23 04:23:19;;;;;;;2.90;0.90;;;20.00;47.30;;;;;;5051020;28;20032;-52
2022/12/23 04:25:45;;;;;;;1.80;0.95;;;20.00;47.20;;;;;;5052143;28;20032;-51
2022/12/23 04:28:11;;;;;;;2.25;0.77;;;20.00;47.20;;;;;;5052443;28;20439;-49
2022/12/23 04:30:37;;;;;;;1.15;0.80;;;20.00;47.20;;;;;;5051527;28;20039;-50
2022/12/23 04:33:03;;;;;;;1.55;1.10;;;19.90;47.20;;;;;;5054509;28;20045;-53
2022/12/23 04:35:29;;;;;;;0.73;0.73;;;20.00;47.30;;;;;;5051521;28;20360;-53
2022/12/23 04:37:55;;;;;;;1.58;0.90;;;19.90;47.20;;;;;;5052465;28;20025;-52
2022/12/23 04:40:20;;;;;;;1.10;0.80;;;20.00;47.20;;;;;;5052070;28;20040;-50
2022/12/23 04:42:46;;;;;;;1.63;0.98;;;20.00;47.20;;;;;;5052216;28;20036;-53
2022/12/23 04:45:12;;;;;;;1.20;0.90;;;20.00;47.20;;;;;;5034678;28;20024;-54
2022/12/23 04:47:39;;;;;;;3.00;0.80;;;19.90;47.10;;;;;;5052431;28;20021;-49
2022/12/23 04:50:06;;;;;;;1.17;0.85;;;19.90;47.10;;;;;;5052048;28;20391;-54
2022/12/23 04:52:32;;;;;;;1.75;0.80;;;19.90;47.10;;;;;;5051617;28;20035;-53
2022/12/23 04:54:57;;;;;;;2.10;0.70;;;19.90;47.10;;;;;;5052775;28;20431;-49
2022/12/23 04:57:23;;;;;;;0.85;0.60;;;19.90;47.00;;;;;;5051525;28;20021;-54
2022/12/23 04:59:49;;;;;;;1.30;0.80;;;19.90;47.00;;;;;;5053856;28;20432;-55
2022/12/23 05:02:15;;;;;;;0.80;0.80;;;19.90;47.00;;;;;;5051547;28;20060;-52
2022/12/23 05:04:41;;;;;;;1.77;0.70;;;19.90;47.00;;;;;;5051165;28;20455;-54
2022/12/23 05:07:06;;;;;;;2.08;1.10;;;19.90;47.00;;;;;;5048820;28;20029;-53
2022/12/23 05:09:32;;;;;;;1.02;0.70;;;19.90;47.00;;;;;;5054287;28;20067;-52
2022/12/23 05:11:58;;;;;;;0.90;0.60;;;19.90;46.90;;;;;;5050830;28;20021;-52
2022/12/23 05:14:24;;;;;;;1.00;0.70;;;19.90;46.90;;;;;;5052136;28;20027;-53
2022/12/23 05:16:49;;;;;;;1.15;0.85;;;19.90;46.90;;;;;;5050378;28;20057;-51
2022/12/23 05:19:15;;;;;;;1.00;0.55;;;19.90;46.80;;;;;;5050277;28;20029;-52
2022/12/23 05:21:41;;;;;;;1.00;0.70;;;19.90;46.80;;;;;;5050683;28;20460;-50
2022/12/23 05:24:07;;;;;;;1.00;0.88;;;19.90;46.80;;;;;;5051935;28;20025;-50
2022/12/23 05:26:33;;;;;;;0.77;0.60;;;19.90;46.80;;;;;;5050626;28;20068;-47
2022/12/23 05:28:59;;;;;;;1.05;0.57;;;19.90;46.80;;;;;;5051689;28;20037;-55
2022/12/23 05:31:25;;;;;;;0.63;0.60;;;20.00;46.80;;;;;;5050445;28;20064;-49
2022/12/23 05:33:50;;;;;;;1.02;0.75;;;19.90;46.70;;;;;;5049244;28;20029;-55
2022/12/23 05:36:16;;;;;;;1.00;0.73;;;20.00;46.80;;;;;;5051727;28;20067;-52
2022/12/23 05:38:42;;;;;;;0.70;0.60;;;20.00;46.80;;;;;;5051618;28;20075;-55
2022/12/23 05:41:08;;;;;;;1.20;0.80;;;20.00;46.80;;;;;;5050622;28;20074;-51
2022/12/23 05:43:33;;;;;;;1.30;0.77;;;20.00;46.80;;;;;;5048243;28;20329;-56
2022/12/23 05:45:59;;;;;;;1.55;0.80;;;20.00;46.80;;;;;;5050613;28;20394;-51
2022/12/23 05:48:25;;;;;;;0.95;0.70;;;20.00;46.70;;;;;;5051058;28;20053;-52
2022/12/23 05:50:52;;;;;;;0.90;0.70;;;20.00;46.70;;;;;;5050664;28;20483;-49
2022/12/23 05:53:19;;;;;;;1.35;0.80;;;20.00;46.70;;;;;;5050074;28;20032;-54
2022/12/23 05:55:45;;;;;;;2.60;0.80;;;20.00;46.70;;;;;;5049780;28;20039;-49
2022/12/23 05:58:12;;;;;;;1.50;0.88;;;20.00;46.70;;;;;;5049998;28;20078;-48
2022/12/23 06:00:38;;;;;;;1.10;0.80;;;20.00;46.70;;;;;;5051605;28;20071;-51
2022/12/23 06:03:04;;;;;;;1.15;0.90;;;20.00;46.70;;;;;;5050268;28;20445;-54
2022/12/23 06:05:30;;;;;;;1.25;0.80;;;20.00;46.70;;;;;;5049891;28;22576;-50
2022/12/23 06:07:56;;;;;;;1.02;0.95;;;20.00;46.70;;;;;;5050271;28;20040;-55
2022/12/23 06:10:21;;;;;;;1.10;0.90;;;20.00;46.70;;;;;;5050890;28;20048;-53
2022/12/23 06:12:47;;;;;;;1.73;1.10;;;20.00;46.70;;;;;;5049808;28;20032;-53
2022/12/23 06:15:14;;;;;;;2.60;1.40;;;20.00;46.70;;;;;;5051450;28;20116;-50
2022/12/23 06:17:40;;;;;;;1.83;1.30;;;20.00;46.80;;;;;;5049108;28;20041;-52
2022/12/23 06:20:07;;;;;;;2.55;1.40;;;20.00;46.80;;;;;;5050193;28;20033;-52
2022/12/23 06:22:33;;;;;;;1.50;1.40;;;20.00;46.80;;;;;;5047396;28;20112;-50
2022/12/23 06:24:59;;;;;;;1.50;1.35;;;20.00;46.80;;;;;;5050448;28;20132;-50
2022/12/23 06:27:25;;;;;;;1.98;1.40;;;20.00;46.80;;;;;;5050370;28;20025;-51
2022/12/23 06:29:51;;;;;;;1.35;1.20;;;20.00;46.80;;;;;;5049521;28;20037;-55
2022/12/23 06:32:16;;;;;;;2.17;1.50;;;20.00;46.80;;;;;;5049528;28;20036;-54
2022/12/23 06:34:42;;;;;;;1.77;1.20;;;20.00;46.80;;;;;;5049204;28;20016;-53
2022/12/23 06:37:08;;;;;;;1.50;1.10;;;20.00;46.80;;;;;;5048865;28;20489;-52
2022/12/23 06:39:34;;;;;;;1.48;1.10;;;20.00;46.80;;;;;;5050273;28;20029;-52
2022/12/23 06:41:59;;;;;;;1.98;1.20;;;20.00;46.80;;;;;;5050233;28;20040;-55
2022/12/23 06:44:25;;;;;;;1.63;1.40;;;20.00;46.80;;;;;;5049543;28;21651;-53
2022/12/23 06:46:51;;;;;;;1.95;1.20;;;20.00;46.80;;;;;;5046516;28;20110;-51
2022/12/23 06:49:17;;;;;;;1.30;1.15;;;20.00;46.80;;;;;;5047205;28;20035;-52
2022/12/23 06:51:43;;;;;;;1.35;1.23;;;20.00;46.80;;;;;;5048478;28;20037;-55
2022/12/23 06:54:10;;;;;;;1.50;1.40;;;20.00;46.70;;;;;;5048853;28;20108;-50
2022/12/23 06:56:36;;;;;;;1.30;1.10;;;20.00;46.70;;;;;;5050470;28;20033;-56
2022/12/23 06:59:02;;;;;;;1.27;1.13;;;20.00;46.80;;;;;;5031276;28;20025;-57
2022/12/23 07:01:28;;;;;;;1.50;1.13;;;20.00;46.70;;;;;;5047094;28;20155;-54
2022/12/23 07:03:54;;;;;;;1.42;1.00;;;20.00;46.70;;;;;;5048873;28;20017;-55
2022/12/23 07:06:20;;;;;;;1.73;1.45;;;20.00;46.70;;;;;;5049626;28;20052;-50
2022/12/23 07:08:45;;;;;;;1.55;1.25;;;20.00;46.70;;;;;;5048820;28;20107;-50
2022/12/23 07:11:11;;;;;;;1.80;1.40;;;20.00;46.80;;;;;;5051666;28;20128;-50
2022/12/23 07:13:37;;;;;;;1.50;1.15;;;20.00;46.80;;;;;;5050094;28;20033;-47
2022/12/23 07:16:07;;;;;;;1.98;1.58;;;20.00;46.70;;;;;;5049097;28;20086;-51
2022/12/23 07:18:33;;;;;;;2.97;1.50;;;20.00;46.70;;;;;;5048843;28;20028;-52
2022/12/23 07:21:00;;;;;;;2.40;1.30;;;20.00;46.70;;;;;;5047856;28;20033;-51
2022/12/23 07:23:26;;;;;;;1.73;1.40;;;20.00;46.70;;;;;;5049136;28;20116;-51
2022/12/23 07:25:52;;;;;;;1.35;1.13;;;20.00;46.70;;;;;;5048788;28;20128;-52
2022/12/23 07:28:17;;;;;;;1.35;1.20;;;20.00;46.70;;;;;;5050838;28;20461;-51
2022/12/23 07:30:43;;;;;;;2.17;1.40;;;20.00;46.70;;;;;;5049053;28;20120;-48
2022/12/23 07:33:09;;;;;;;3.17;1.23;;;20.00;46.70;;;;;;5048560;28;20047;-51
2022/12/23 07:35:35;;;;;;;2.08;1.30;;;20.00;46.70;;;;;;5049149;28;20448;-51
2022/12/23 07:38:01;;;;;;;1.77;1.38;;;20.00;46.70;;;;;;5031275;28;20029;-51
2022/12/23 07:40:26;;;;;;;1.70;1.30;;;20.00;46.70;;;;;;5048922;28;20032;-54
2022/12/23 07:42:57;;;;;;;1.40;1.30;;;20.00;46.70;;;;;;5049221;28;20388;-53
2022/12/23 07:45:27;;;;;;;1.52;1.30;;;20.00;46.70;;;;;;5048640;28;20356;-51
2022/12/23 07:47:54;;;;;;;2.45;1.30;;;20.00;46.80;;;;;;5030472;28;20025;-53
2022/12/23 07:50:20;;;;;;;2.20;1.60;;;20.00;46.80;;;;;;5052015;28;20057;-53
2022/12/23 07:52:46;;;;;;;1.50;1.27;;;20.00;46.70;;;;;;5047988;28;20047;-52
2022/12/23 07:55:13;;;;;;;1.88;1.40;;;20.00;46.70;;;;;;5051744;28;20052;-49
2022/12/23 07:57:39;;;;;;;1.80;1.40;;;20.00;46.70;;;;;;5055294;28;20100;-51
2022/12/23 08:00:09;;;;;;;1.92;1.38;;;19.90;46.60;;;;;;5053912;28;20064;-49
2022/12/23 08:02:41;;;;;;;2.17;1.20;;;20.00;46.70;;;;;;5050515;28;20025;-50
2022/12/23 08:05:07;;;;;;;2.80;1.20;;;20.00;46.80;;;;;;5051530;28;20029;-50
2022/12/23 08:07:33;;;;;;;1.50;1.27;;;20.00;46.80;;;;;;5051326;28;20361;-53
2022/12/23 08:09:58;;;;;;;1.58;1.20;;;20.00;46.90;;;;;;5051146;28;20041;-47
2022/12/23 08:12:24;;;;;;;2.53;0.85;;;20.00;47.00;;;;;;5053546;28;20385;-50
2022/12/23 08:14:51;;;;;;;1.10;1.00;;;20.00;47.00;;;;;;5049752;28;20119;-53
2022/12/23 08:17:19;;;;;;;1.92;1.02;;;20.00;47.00;;;;;;5050401;28;20051;-55
2022/12/23 08:19:49;;;;;;;1.13;0.98;;;20.10;47.00;;;;;;5051851;28;20051;-54
2022/12/23 08:22:15;;;;;;;1.30;0.90;;;20.10;47.00;;;;;;5051818;28;20025;-54
2022/12/23 08:24:41;;;;;;;2.20;0.90;;;20.20;47.00;;;;;;5052916;28;20031;-49
2022/12/23 08:27:06;;;;;;;1.08;0.75;;;20.20;46.90;;;;;;5052566;28;20025;-52
2022/12/23 08:29:32;;;;;;;0.90;0.70;;;20.30;47.50;;;;;;5052456;28;20033;-53
2022/12/23 08:31:58;;;;;;;0.90;0.80;;;20.30;46.80;;;;;;5054034;28;20035;-53
2022/12/23 08:34:24;;;;;;;2.20;1.00;;;20.40;46.70;;;;;;5055433;28;20439;-52
2022/12/23 08:36:50;;;;;;;0.75;0.70;;;20.40;46.60;;;;;;5052888;28;20025;-54
2022/12/23 08:39:17;;;;;;;1.02;0.90;;;20.50;46.40;;;;;;5054909;28;20029;-53
2022/12/23 08:41:46;;;;;;;1.83;0.90;;;20.50;46.30;;;;;;5034624;28;20069;-50
2022/12/23 08:44:12;;;;;;;1.20;0.90;;;20.60;46.10;;;;;;5053454;28;20126;-53
2022/12/23 08:46:39;;;;;;;1.10;0.80;;;20.60;46.10;;;;;;5054377;28;20095;-50
2022/12/23 08:49:06;;;;;;;2.05;0.80;;;20.70;46.10;;;;;;5050305;28;20025;-49
2022/12/23 08:51:32;;;;;;;1.40;1.00;;;20.80;46.00;;;;;;5054883;28;20048;-53
2022/12/23 08:53:59;;;;;;;1.60;0.90;;;20.80;45.90;;;;;;5054542;28;20021;-52
2022/12/23 08:56:28;;;;;;;1.52;0.80;;;20.90;45.80;;;;;;5056282;28;20059;-52
2022/12/23 08:58:55;;;;;;;1.08;0.88;;;20.90;45.70;;;;;;5058446;28;20047;-55
2022/12/23 09:01:26;;;;;;;1.15;0.75;;;21.00;45.60;;;;;;5033828;28;20601;-55
2022/12/23 09:03:53;;;;;;;1.23;0.85;;;21.00;45.40;;;;;;5052698;28;20456;-54
2022/12/23 09:06:26;;;;;;;0.82;0.60;;;21.10;45.30;;;;;;5054494;28;20028;-54
2022/12/23 09:08:53;;;;;;;1.25;0.57;;;21.10;45.20;;;;;;5050446;28;20451;-52
2022/12/23 09:11:22;;;;;;;1.30;0.80;;;21.20;45.20;;;;;;5054013;28;20044;-50
2022/12/23 09:13:48;;;;;;;2.47;1.05;;;21.20;45.00;;;;;;5053556;28;20039;-53
2022/12/23 09:16:14;;;;;;;1.30;0.88;;;21.20;45.00;;;;;;5054570;28;20080;-53
2022/12/23 09:18:40;;;;;;;1.98;0.98;;;21.30;44.90;;;;;;5048663;28;20033;-51
2022/12/23 09:21:10;;;;;;;1.05;0.60;;;21.30;44.80;;;;;;5052112;28;20029;-49
2022/12/23 09:23:36;;;;;;;2.55;0.90;;;21.30;44.70;;;;;;5050162;28;20024;-53
2022/12/23 09:26:07;;;;;;;1.17;0.80;;;21.40;44.70;;;;;;5053855;28;20017;-51
2022/12/23 09:28:33;;;;;;;1.10;0.75;;;21.40;44.60;;;;;;5053140;28;20104;-53
2022/12/23 09:31:07;;;;;;;0.93;0.75;;;21.40;44.60;;;;;;5053615;28;20128;-55
2022/12/23 09:33:33;;;;;;;1.30;1.00;;;21.50;44.60;;;;;;5051374;28;20479;-55
2022/12/23 09:36:00;;;;;;;2.08;1.17;;;21.50;44.50;;;;;;5053115;28;20025;-55
2022/12/23 09:38:25;;;;;;;2.10;1.27;;;21.60;44.50;;;;;;5053484;28;20025;-53
2022/12/23 09:40:51;;;;;;;1.42;1.00;;;21.60;44.40;;;;;;5054224;28;20348;-51
2022/12/23 09:43:38;;;;;;;1.58;1.10;;;21.60;44.30;;;;;;5055096;28;20037;-52
2022/12/23 09:46:19;;;;;;;1.98;1.25;;;21.60;44.30;;;;;;5054373;28;20384;-54
2022/12/23 09:49:14;;;;;;;1.60;1.20;;;21.70;44.30;;;;;;5054559;28;20391;-53
2022/12/23 09:51:39;;;;;;;1.90;1.30;;;21.70;44.20;;;;;;5043415;28;20083;-52
2022/12/23 09:54:23;;;;;;;1.60;1.20;;;21.70;44.20;;;;;;5055085;28;20056;-52
2022/12/23 09:57:15;;;;;;;2.22;1.20;;;21.70;44.10;;;;;;5054464;28;20029;-53
2022/12/23 09:59:59;;;;;;;3.80;1.42;;;21.70;44.10;;;;;;5054425;28;20037;-53
2022/12/23 10:02:52;;;;;;;2.15;1.60;;;21.70;44.00;;;;;;5035081;28;20120;-51
2022/12/23 10:05:29;;;;;;;1.85;1.45;;;21.70;44.00;;;;;;5017586;28;20326;-51
2022/12/23 10:07:57;;;;;;;1.63;1.25;;;21.70;44.00;;;;;;5041293;28;20052;-52
2022/12/23 10:10:41;;;;;;;1.92;1.45;;;21.70;44.00;;;;;;5054174;28;20483;-49
2022/12/23 10:13:34;;;;;;;2.45;1.70;;;21.70;44.00;;;;;;5054271;28;20032;-52
2022/12/23 10:16:11;;;;;;;2.22;1.40;;;21.70;44.00;;;;;;5014340;28;1142906;-55
2022/12/23 10:18:46;;;;;;;3.45;1.58;;;21.70;44.00;;;;;;5054487;28;20464;-55
2022/12/23 10:21:30;;;;;;;4.07;1.67;;;21.80;44.00;;;;;;5054637;28;20433;-52
2022/12/23 10:24:01;;;;;;;3.65;1.60;;;21.70;44.00;;;;;;5055376;28;20198;-53
2022/12/23 10:26:33;;;;;;;2.00;1.73;;;21.70;44.00;;;;;;5047509;28;20037;-53
2022/12/23 10:29:14;;;;;;;3.17;2.05;;;21.70;44.00;;;;;;5055135;28;20112;-51
2022/12/23 10:32:18;;;;;;;3.55;2.17;;;21.70;44.20;;;;;;5048923;28;20048;-51
2022/12/23 10:35:14;;;;;;;3.47;2.15;;;21.70;44.50;;;;;;5036074;28;20033;-52
2022/12/23 10:37:58;;;;;;;4.25;2.22;;;21.70;44.60;;;;;;5049760;28;20024;-51
2022/12/23 10:40:39;;;;;;;2.67;2.15;;;21.70;44.70;;;;;;5046639;28;20033;-53
2022/12/23 10:43:10;;;;;;;3.15;2.10;;;21.70;44.70;;;;;;5049794;28;20028;-47
2022/12/23 10:45:57;;;;;;;3.10;1.60;;;21.70;45.00;;;;;;5044268;28;20029;-51
2022/12/23 10:48:58;;;;;;;2.30;1.40;;;21.70;45.40;;;;;;5054695;28;20340;-52
2022/12/23 10:51:41;;;;;;;2.92;1.73;;;21.70;45.80;;;;;;5054643;28;20037;-51
2022/12/23 10:54:15;;;;;;;2.78;1.50;;;21.70;46.00;;;;;;5054711;28;20029;-54
2022/12/23 10:56:42;;;;;;;1.92;1.45;;;21.80;46.30;;;;;;5055834;28;20471;-55
2022/12/23 10:59:13;;;;;;;1.92;1.35;;;21.80;46.40;;;;;;5052662;28;20163;-58
2022/12/23 11:01:41;;;;;;;2.58;1.60;;;21.80;46.50;;;;;;5053747;28;20044;-58
2022/12/23 11:04:18;;;;;;;2.10;1.40;;;21.80;46.50;;;;;;5054038;28;20044;-55
2022/12/23 11:06:50;;;;;;;2.83;1.60;;;21.80;46.50;;;;;;5054286;28;20029;-55
2022/12/23 11:09:23;;;;;;;2.45;1.63;;;21.80;46.40;;;;;;5035869;28;20094;-50
2022/12/23 11:11:55;;;;;;;2.45;1.67;;;21.90;46.40;;;;;;5054432;28;20127;-52
2022/12/23 11:14:36;;;;;;;2.67;1.58;;;21.90;46.40;;;;;;5054627;28;20426;-46
2022/12/23 11:17:04;;;;;;;3.53;2.08;;;21.90;46.30;;;;;;5053623;28;20060;-50
2022/12/23 11:19:30;;;;;;;2.78;1.60;;;21.90;46.30;;;;;;5052853;28;20502;-51
2022/12/23 11:21:58;;;;;;;2.55;1.90;;;21.90;46.20;;;;;;5054156;28;20047;-47
2022/12/23 11:24:26;;;;;;;3.38;1.80;;;21.90;46.10;;;;;;5054827;28;20384;-50
2022/12/23 11:27:03;;;;;;;2.85;1.90;;;21.90;46.00;;;;;;5058301;28;20048;-47
2022/12/23 11:29:43;;;;;;;3.95;2.10;;;22.00;46.00;;;;;;5057884;28;20056;-49
2022/12/23 11:32:24;;;;;;;2.35;1.58;;;22.00;46.00;;;;;;5057551;28;20554;-53
2022/12/23 11:34:51;;;;;;;2.75;1.90;;;22.00;45.90;;;;;;5056993;28;20467;-46
2022/12/23 11:37:40;;;;;;;3.15;2.05;;;22.00;45.90;;;;;;5050367;28;20028;-49
2022/12/23 11:40:20;;;;;;;3.20;2.20;;;22.00;45.80;;;;;;5051691;28;20041;-45
2022/12/23 11:42:46;;;;;;;3.20;2.05;;;22.10;45.70;;;;;;5033501;28;20422;-46
2022/12/23 11:45:21;;;;;;;3.38;2.15;;;22.10;45.60;;;;;;5054401;28;20104;-47
2022/12/23 11:47:48;;;;;;;3.33;2.25;;;22.00;45.40;;;;;;5055845;28;20044;-52
2022/12/23 11:50:20;;;;;;;2.53;2.13;;;22.10;45.40;;;;;;5051930;28;20068;-49
2022/12/23 11:52:51;;;;;;;2.90;2.22;;;22.10;45.30;;;;;;5053196;28;20601;-51
2022/12/23 11:55:25;;;;;;;4.00;2.50;;;22.10;45.20;;;;;;5053784;28;20048;-47
2022/12/23 11:57:51;;;;;;;3.95;2.67;;;22.10;45.20;;;;;;5053058;28;20041;-49
2022/12/23 12:00:24;;;;;;;4.07;2.42;;;22.00;45.10;;;;;;5056989;28;20033;-52
2022/12/23 12:02:59;;;;;;;3.35;2.55;;;22.00;45.10;;;;;;5056733;28;20045;-51
2022/12/23 12:05:32;;;;;;;3.05;2.28;;;22.00;45.10;;;;;;5057745;28;20021;-48
2022/12/23 12:08:04;;;;;;;3.63;2.88;;;22.00;45.00;;;;;;5057353;28;20077;-49
2022/12/23 12:10:37;;;;;;;3.72;2.80;;;22.00;45.00;;;;;;5054065;28;20037;-49
2022/12/23 12:13:07;;;;;;;4.25;2.88;;;22.00;44.90;;;;;;5058099;28;20454;-49
2022/12/23 12:15:41;;;;;;;6.38;3.00;;;22.00;44.90;;;;;;5057161;28;20036;-48
2022/12/23 12:18:13;;;;;;;3.58;2.80;;;22.00;44.80;;;;;;5057087;28;20477;-52
2022/12/23 12:20:52;;;;;;;3.53;2.78;;;22.00;44.80;;;;;;5050793;28;20040;-51
2022/12/23 12:23:22;;;;;;;3.30;2.60;;;22.00;44.80;;;;;;5045145;28;21583;-46
2022/12/23 12:25:50;;;;;;;4.05;3.00;;;22.00;44.70;;;;;;5050723;28;20035;-47
2022/12/23 12:28:35;;;;;;;4.53;2.83;;;22.00;44.70;;;;;;5044879;28;20063;-48
2022/12/23 12:31:16;;;;;;;4.47;3.03;;;22.00;44.70;;;;;;5048914;28;20037;-50
2022/12/23 12:34:01;;;;;;;3.75;2.72;;;22.00;44.70;;;;;;5045553;28;20043;-50
2022/12/23 12:36:33;;;;;;;3.13;2.38;;;22.00;44.70;;;;;;5048643;28;20108;-45
2022/12/23 12:38:59;;;;;;;3.42;2.38;;;22.00;44.80;;;;;;5048773;28;20092;-49
2022/12/23 12:41:44;;;;;;;3.67;2.47;;;22.00;44.70;;;;;;5044994;28;20476;-47
2022/12/23 12:44:38;;;;;;;4.10;2.72;;;22.00;44.70;;;;;;5042076;28;20021;-47
2022/12/23 12:47:30;;;;;;;4.05;2.30;;;22.00;44.70;;;;;;5042589;28;20029;-47
2022/12/23 12:50:01;;;;;;;3.17;2.72;;;22.00;44.70;;;;;;5048306;28;20371;-51
2022/12/23 12:52:30;;;;;;;4.18;2.50;;;22.00;44.70;;;;;;5047902;28;20809;-49
2022/12/23 12:55:03;;;;;;;2.38;2.05;;;22.00;44.80;;;;;;5050244;28;20466;-53
2022/12/23 12:57:33;;;;;;;3.00;2.03;;;22.00;44.80;;;;;;5047996;28;20056;-52
2022/12/23 12:59:59;;;;;;;3.28;2.13;;;21.90;44.70;;;;;;5048074;28;20028;-53
2022/12/23 13:03:10;;;;;;;3.25;2.03;;;22.00;44.80;;;;;;5050061;28;20036;-56
2022/12/23 13:05:48;;;;;;;3.63;2.25;;;22.00;44.70;;;;;;5046681;28;20029;-55
2022/12/23 13:08:43;;;;;;;3.50;2.08;;;22.00;44.70;;;;;;5047891;28;20025;-51
2022/12/23 13:11:35;;;;;;;2.20;1.60;;;22.00;44.80;;;;;;5048864;28;20037;-53
2022/12/23 13:14:33;;;;;;;2.00;1.42;;;22.00;44.80;;;;;;5046913;28;20127;-49
2022/12/23 13:17:22;;;;;;;2.30;1.85;;;22.00;44.70;;;;;;5048844;28;20044;-52
2022/12/23 13:19:55;;;;;;;4.10;2.22;;;21.90;44.60;;;;;;5032421;28;20045;-48
2022/12/23 13:22:28;;;;;;;4.72;1.60;;;22.00;44.70;;;;;;5049434;28;20029;-52
2022/12/23 13:25:17;;;;;;;2.95;1.60;;;22.00;44.80;;;;;;5048008;28;20025;-55
2022/12/23 13:28:01;;;;;;;3.13;1.77;;;22.00;44.80;;;;;;5045581;28;20029;-54
2022/12/23 13:30:32;;;;;;;;;;;22.00;44.80;;;;;;5047395;28;20139;-54
2022/12/23 13:33:17;;;;;;;4.75;1.80;;;22.00;44.90;;;;;;5047769;28;19927;-50
2022/12/23 13:35:46;;;;;;;2.40;1.30;;;22.00;44.90;;;;;;5049929;28;20025;-49
2022/12/23 13:38:36;;;;;;;2.85;1.63;;;22.00;44.90;;;;;;5048971;28;20025;-47
2022/12/23 13:41:24;;;;;;;2.33;1.15;;;22.00;44.90;;;;;;5047296;28;20353;-52
2022/12/23 13:43:59;;;;;;;2.47;1.38;;;22.00;45.50;;;;;;5047640;28;20040;-50